createdAt,value
2019-05-26T00:00:32.203Z,9.17
2019-05-26T00:01:18.570Z,8.30
2019-05-26T00:02:05.193Z,8.73
2019-05-26T00:02:51.404Z,8.67
2019-05-26T00:03:37.510Z,8.90
2019-05-26T00:04:24.097Z,8.33
2019-05-26T00:05:10.291Z,9.07
2019-05-26T00:05:57.710Z,7.97
2019-05-26T00:06:44.096Z,8.90
2019-05-26T00:07:30.999Z,8.87
2019-05-26T00:08:17.703Z,8.27
2019-05-26T00:09:05.541Z,8.80
2019-05-26T00:09:51.766Z,8.27
2019-05-26T00:10:37.619Z,7.87
2019-05-26T00:11:23.275Z,8.47
2019-05-26T00:12:09.330Z,8.07
2019-05-26T00:12:55.348Z,7.90
2019-05-26T00:13:41.513Z,8.17
2019-05-26T00:14:27.308Z,8.60
2019-05-26T00:15:13.356Z,7.73
2019-05-26T00:15:59.503Z,8.17
2019-05-26T00:16:45.655Z,8.10
2019-05-26T00:17:31.738Z,7.80
2019-05-26T00:18:17.687Z,8.23
2019-05-26T00:19:03.729Z,8.53
2019-05-26T00:19:50.208Z,8.23
2019-05-26T00:20:36.223Z,7.40
2019-05-26T00:21:22.719Z,7.90
2019-05-26T00:22:09.240Z,7.67
2019-05-26T00:22:55.867Z,8.40
2019-05-26T00:23:42.272Z,8.23
2019-05-26T00:24:28.695Z,7.40
2019-05-26T00:25:15.668Z,8.53
2019-05-26T00:26:02.175Z,8.30
2019-05-26T00:26:48.594Z,9.07
2019-05-26T00:27:34.936Z,8.47
2019-05-26T00:28:21.013Z,9.03
2019-05-26T00:29:07.452Z,8.53
2019-05-26T00:29:53.791Z,7.87
2019-05-26T00:30:39.718Z,8.13
2019-05-26T00:31:25.520Z,8.70
2019-05-26T00:32:11.520Z,8.73
2019-05-26T00:32:57.440Z,9.70
2019-05-26T00:33:43.432Z,8.33
2019-05-26T00:34:29.419Z,8.00
2019-05-26T00:35:15.826Z,8.57
2019-05-26T00:36:02.055Z,9.00
2019-05-26T00:36:48.202Z,9.13
2019-05-26T00:37:48.642Z,8.80
2019-05-26T00:38:23.582Z,8.13
2019-05-26T00:39:10.195Z,7.90
2019-05-26T00:39:56.643Z,8.33
2019-05-26T00:40:42.822Z,7.30
2019-05-26T00:41:28.978Z,7.63
2019-05-26T00:42:16.594Z,10.83
2019-05-26T00:43:03.002Z,11.37
2019-05-26T00:43:49.385Z,9.80
2019-05-26T00:44:35.868Z,8.47
2019-05-26T00:45:23.228Z,8.63
2019-05-26T00:46:14.571Z,8.87
2019-05-26T00:47:00.856Z,9.53
2019-05-26T00:47:46.871Z,9.37
2019-05-26T00:48:33.089Z,8.13
2019-05-26T00:49:20.819Z,11.73
2019-05-26T00:50:07.902Z,10.10
2019-05-26T00:50:54.035Z,8.63
2019-05-26T00:51:40.240Z,9.07
2019-05-26T00:52:27.330Z,12.60
2019-05-26T00:53:13.572Z,10.00
2019-05-26T00:53:59.487Z,16.90
2019-05-26T00:54:46.358Z,14.90
2019-05-26T00:55:32.312Z,11.80
2019-05-26T00:56:18.171Z,11.00
2019-05-26T00:57:04.340Z,12.27
2019-05-26T00:57:50.343Z,11.33
2019-05-26T00:58:38.210Z,10.23
2019-05-26T00:59:24.563Z,10.30
2019-05-26T01:00:11.776Z,9.87
2019-05-26T01:00:57.995Z,9.83
2019-05-26T01:01:43.873Z,9.70
2019-05-26T01:02:30.203Z,9.70
2019-05-26T01:03:16.038Z,10.13
2019-05-26T01:04:02.375Z,9.93
2019-05-26T01:04:48.099Z,9.93
2019-05-26T01:05:33.788Z,10.60
2019-05-26T01:06:20.216Z,9.73
2019-05-26T01:07:07.703Z,10.07
2019-05-26T01:08:05.820Z,10.63
2019-05-26T01:08:41.761Z,9.97
2019-05-26T01:09:27.678Z,9.20
2019-05-26T01:10:14.311Z,10.03
2019-05-26T01:11:01.461Z,10.03
2019-05-26T01:11:47.884Z,10.57
2019-05-26T01:12:33.472Z,10.97
2019-05-26T01:13:19.570Z,11.13
2019-05-26T01:14:05.221Z,11.17
2019-05-26T01:14:51.718Z,11.40
2019-05-26T01:15:37.653Z,11.17
2019-05-26T01:16:23.820Z,11.60
2019-05-26T01:17:10.030Z,12.13
2019-05-26T01:17:56.149Z,11.00
2019-05-26T01:18:41.868Z,11.63
2019-05-26T01:19:27.823Z,12.03
2019-05-26T01:20:14.147Z,11.80
2019-05-26T01:21:00.358Z,11.77
2019-05-26T01:21:46.820Z,11.47
2019-05-26T01:22:32.959Z,11.75
2019-05-26T01:23:19.216Z,11.80
2019-05-26T01:24:05.587Z,12.90
2019-05-26T01:24:52.063Z,12.43
2019-05-26T01:25:38.087Z,12.13
2019-05-26T01:26:23.993Z,12.53
2019-05-26T01:27:10.102Z,11.93
2019-05-26T01:27:56.197Z,12.33
2019-05-26T01:28:42.164Z,12.10
2019-05-26T01:29:28.553Z,12.57
2019-05-26T01:30:15.718Z,12.83
2019-05-26T01:31:02.127Z,12.50
2019-05-26T01:31:48.515Z,13.23
2019-05-26T01:32:34.975Z,13.30
2019-05-26T01:33:21.539Z,12.33
2019-05-26T01:34:07.886Z,14.13
2019-05-26T01:34:54.360Z,13.07
2019-05-26T01:35:40.354Z,13.67
2019-05-26T01:36:26.400Z,13.70
2019-05-26T01:37:12.166Z,12.83
2019-05-26T01:37:58.851Z,12.63
2019-05-26T01:38:45.213Z,13.47
2019-05-26T01:39:31.543Z,13.70
2019-05-26T01:40:21.446Z,13.40
2019-05-26T01:41:07.966Z,12.17
2019-05-26T01:41:54.557Z,13.20
2019-05-26T01:42:40.918Z,14.60
2019-05-26T01:43:26.828Z,13.10
2019-05-26T01:44:13.291Z,13.67
2019-05-26T01:44:59.651Z,13.43
2019-05-26T01:45:46.139Z,14.00
2019-05-26T01:46:33.431Z,13.23
2019-05-26T01:47:19.618Z,13.90
2019-05-26T01:48:07.044Z,13.90
2019-05-26T01:48:52.969Z,13.77
2019-05-26T01:49:38.772Z,14.40
2019-05-26T01:50:24.943Z,16.73
2019-05-26T01:51:11.322Z,18.53
2019-05-26T01:51:57.438Z,15.67
2019-05-26T01:52:43.740Z,16.30
2019-05-26T01:53:29.375Z,14.53
2019-05-26T01:54:15.143Z,17.93
2019-05-26T01:55:04.311Z,16.87
2019-05-26T01:55:50.557Z,16.80
2019-05-26T01:56:36.243Z,23.33
2019-05-26T01:57:21.981Z,18.47
2019-05-26T01:58:08.167Z,17.80
2019-05-26T01:58:54.870Z,18.53
2019-05-26T01:59:41.167Z,18.33
2019-05-26T02:00:27.044Z,17.67
2019-05-26T02:01:13.290Z,17.50
2019-05-26T02:02:00.321Z,17.93
2019-05-26T02:02:46.127Z,17.57
2019-05-26T02:03:31.779Z,16.77
2019-05-26T02:04:17.987Z,17.10
2019-05-26T02:05:03.924Z,17.00
2019-05-26T02:05:50.151Z,18.90
2019-05-26T02:06:36.165Z,18.43
2019-05-26T02:07:22.400Z,18.23
2019-05-26T02:08:11.807Z,19.03
2019-05-26T02:08:56.744Z,17.33
2019-05-26T02:09:43.188Z,18.83
2019-05-26T02:10:29.376Z,17.63
2019-05-26T02:11:16.171Z,17.57
2019-05-26T02:12:02.600Z,18.23
2019-05-26T02:12:49.326Z,18.23
2019-05-26T02:13:43.419Z,18.57
2019-05-26T02:14:29.783Z,19.27
2019-05-26T02:15:16.221Z,19.10
2019-05-26T02:16:02.411Z,20.07
2019-05-26T02:16:48.286Z,19.33
2019-05-26T02:17:34.401Z,18.57
2019-05-26T02:18:20.847Z,19.50
2019-05-26T02:19:07.331Z,19.83
2019-05-26T02:19:53.291Z,18.67
2019-05-26T02:20:39.210Z,20.13
2019-05-26T02:21:26.403Z,19.47
2019-05-26T02:22:12.904Z,18.87
2019-05-26T02:22:59.105Z,19.80
2019-05-26T02:23:45.507Z,19.97
2019-05-26T02:24:31.930Z,19.10
2019-05-26T02:25:32.760Z,20.20
2019-05-26T02:26:18.888Z,19.30
2019-05-26T02:27:04.972Z,19.93
2019-05-26T02:27:51.307Z,20.10
2019-05-26T02:28:37.247Z,20.60
2019-05-26T02:29:23.110Z,19.23
2019-05-26T02:30:10.253Z,21.27
2019-05-26T02:30:56.675Z,20.77
2019-05-26T02:31:42.632Z,21.83
2019-05-26T02:32:28.324Z,21.57
2019-05-26T02:33:14.489Z,20.83
2019-05-26T02:34:00.219Z,19.57
2019-05-26T02:34:46.365Z,21.33
2019-05-26T02:35:31.982Z,21.70
2019-05-26T02:36:18.212Z,20.70
2019-05-26T02:37:04.462Z,21.13
2019-05-26T02:37:50.734Z,21.30
2019-05-26T02:38:36.543Z,20.57
2019-05-26T02:39:23.112Z,21.57
2019-05-26T02:40:11.546Z,22.80
2019-05-26T02:40:57.676Z,21.47
2019-05-26T02:41:43.406Z,22.37
2019-05-26T02:42:29.220Z,21.73
2019-05-26T02:43:15.153Z,21.83
2019-05-26T02:44:01.236Z,22.80
2019-05-26T02:44:46.955Z,22.27
2019-05-26T02:45:33.049Z,22.17
2019-05-26T02:46:19.360Z,23.60
2019-05-26T02:47:05.755Z,22.83
2019-05-26T02:47:51.761Z,22.93
2019-05-26T02:48:38.280Z,22.67
2019-05-26T02:49:24.753Z,23.80
2019-05-26T02:50:12.722Z,22.73
2019-05-26T02:50:58.563Z,23.43
2019-05-26T02:51:44.217Z,23.00
2019-05-26T02:52:30.290Z,23.93
2019-05-26T02:53:16.454Z,23.83
2019-05-26T02:54:02.791Z,24.70
2019-05-26T02:54:48.714Z,25.67
2019-05-26T02:55:34.861Z,24.70
2019-05-26T02:56:20.570Z,24.33
2019-05-26T02:57:06.345Z,25.17
2019-05-26T02:57:52.795Z,23.13
2019-05-26T02:58:38.852Z,23.77
2019-05-26T02:59:24.711Z,22.70
2019-05-26T03:00:13.520Z,24.90
2019-05-26T03:01:00.467Z,24.50
2019-05-26T03:02:02.511Z,25.50
2019-05-26T03:02:34.759Z,25.60
2019-05-26T03:03:20.802Z,25.13
2019-05-26T03:04:07.041Z,26.00
2019-05-26T03:04:53.580Z,25.43
2019-05-26T03:05:42.155Z,25.70
2019-05-26T03:06:28.426Z,25.80
2019-05-26T03:07:14.935Z,25.43
2019-05-26T03:08:01.891Z,26.47
2019-05-26T03:08:49.577Z,26.03
2019-05-26T03:09:38.341Z,27.37
2019-05-26T03:10:24.523Z,26.23
2019-05-26T03:11:12.185Z,26.27
2019-05-26T03:11:59.941Z,26.43
2019-05-26T03:12:47.435Z,27.17
2019-05-26T03:13:35.278Z,28.13
2019-05-26T03:14:22.927Z,26.33
2019-05-26T03:15:09.580Z,25.60
2019-05-26T03:15:57.596Z,26.03
2019-05-26T03:16:46.476Z,26.27
2019-05-26T03:17:34.036Z,25.47
2019-05-26T03:18:20.674Z,27.27
2019-05-26T03:19:08.231Z,26.03
2019-05-26T03:19:56.312Z,28.27
2019-05-26T03:20:43.335Z,26.27
2019-05-26T03:21:31.929Z,25.90
2019-05-26T03:22:20.944Z,26.40
2019-05-26T03:23:08.639Z,28.30
2019-05-26T03:23:55.291Z,26.53
2019-05-26T03:24:43.072Z,29.07
2019-05-26T03:25:52.038Z,27.90
2019-05-26T03:26:38.244Z,26.73
2019-05-26T03:27:24.711Z,28.77
2019-05-26T03:28:11.109Z,28.97
2019-05-26T03:28:57.532Z,28.33
2019-05-26T03:29:43.954Z,27.73
2019-05-26T03:30:29.845Z,29.33
2019-05-26T03:31:15.567Z,29.50
2019-05-26T03:32:01.899Z,30.50
2019-05-26T03:32:48.317Z,29.90
2019-05-26T03:33:34.368Z,31.77
2019-05-26T03:34:20.881Z,31.53
2019-05-26T03:35:12.264Z,32.87
2019-05-26T03:35:58.281Z,31.83
2019-05-26T03:36:44.292Z,31.50
2019-05-26T03:37:30.765Z,33.27
2019-05-26T03:38:17.298Z,32.90
2019-05-26T03:39:05.135Z,35.80
2019-05-26T03:39:51.318Z,35.73
2019-05-26T03:40:37.934Z,35.87
2019-05-26T03:41:24.008Z,35.97
2019-05-26T03:42:11.711Z,37.30
2019-05-26T03:42:58.081Z,36.63
2019-05-26T03:43:43.963Z,38.47
2019-05-26T03:44:30.069Z,39.43
2019-05-26T03:45:24.167Z,39.67
2019-05-26T03:46:19.999Z,41.17
2019-05-26T03:47:06.686Z,43.73
2019-05-26T03:47:52.919Z,42.53
2019-05-26T03:48:39.016Z,43.43
2019-05-26T03:49:25.117Z,44.53
2019-05-26T03:50:11.874Z,45.30
2019-05-26T03:50:58.762Z,43.03
2019-05-26T03:51:44.997Z,43.27
2019-05-26T03:52:31.131Z,48.47
2019-05-26T03:53:18.680Z,46.87
2019-05-26T03:54:05.296Z,46.73
2019-05-26T03:54:51.895Z,46.93
2019-05-26T03:55:38.793Z,47.87
2019-05-26T03:56:25.267Z,47.67
2019-05-26T03:57:11.808Z,46.77
2019-05-26T03:57:58.281Z,46.13
2019-05-26T03:58:44.263Z,47.63
2019-05-26T03:59:30.460Z,48.37
2019-05-26T04:00:16.771Z,49.83
2019-05-26T04:01:03.340Z,48.27
2019-05-26T04:01:49.538Z,50.43
2019-05-26T04:02:36.070Z,51.03
2019-05-26T04:03:22.280Z,48.67
2019-05-26T04:04:08.569Z,49.23
2019-05-26T04:04:54.463Z,49.13
2019-05-26T04:05:40.960Z,48.63
2019-05-26T04:06:26.942Z,47.33
2019-05-26T04:07:12.923Z,46.37
2019-05-26T04:08:03.982Z,45.90
2019-05-26T04:08:46.897Z,47.63
2019-05-26T04:09:33.268Z,46.53
2019-05-26T04:10:19.714Z,46.50
2019-05-26T04:11:06.197Z,45.67
2019-05-26T04:11:51.899Z,43.03
2019-05-26T04:12:37.665Z,44.73
2019-05-26T04:13:23.972Z,41.50
2019-05-26T04:14:10.231Z,43.10
2019-05-26T04:14:55.919Z,42.97
2019-05-26T04:15:41.720Z,41.37
2019-05-26T04:16:28.018Z,42.27
2019-05-26T04:17:13.793Z,39.60
2019-05-26T04:17:59.744Z,41.00
2019-05-26T04:18:45.428Z,37.83
2019-05-26T04:19:31.611Z,38.70
2019-05-26T04:20:17.799Z,37.97
2019-05-26T04:21:03.937Z,37.80
2019-05-26T04:21:49.789Z,38.23
2019-05-26T04:22:35.795Z,38.00
2019-05-26T04:23:21.894Z,38.27
2019-05-26T04:24:08.011Z,37.27
2019-05-26T04:24:53.692Z,36.27
2019-05-26T04:25:39.468Z,35.90
2019-05-26T04:26:25.182Z,36.57
2019-05-26T04:27:11.198Z,37.03
2019-05-26T04:27:57.841Z,36.93
2019-05-26T04:28:45.143Z,39.23
2019-05-26T04:29:31.653Z,37.17
2019-05-26T04:30:18.385Z,36.20
2019-05-26T04:31:04.530Z,35.30
2019-05-26T04:31:51.325Z,35.07
2019-05-26T04:32:37.745Z,34.53
2019-05-26T04:33:24.347Z,34.43
2019-05-26T04:34:10.892Z,36.90
2019-05-26T04:34:57.537Z,35.03
2019-05-26T04:35:44.006Z,36.20
2019-05-26T04:36:29.737Z,35.07
2019-05-26T04:37:15.399Z,33.73
2019-05-26T04:38:01.049Z,33.70
2019-05-26T04:38:46.891Z,34.93
2019-05-26T04:39:32.823Z,33.57
2019-05-26T04:40:26.281Z,33.70
2019-05-26T04:41:06.417Z,33.20
2019-05-26T04:41:52.610Z,34.57
2019-05-26T04:42:39.139Z,34.37
2019-05-26T04:43:25.438Z,35.00
2019-05-26T04:44:11.725Z,35.83
2019-05-26T04:44:57.919Z,33.83
2019-05-26T04:45:43.566Z,34.00
2019-05-26T04:46:29.561Z,35.27
2019-05-26T04:47:15.506Z,36.35
2019-05-26T04:48:01.497Z,35.03
2019-05-26T04:48:47.547Z,35.03
2019-05-26T04:49:37.414Z,35.87
2019-05-26T04:50:22.215Z,36.33
2019-05-26T04:51:08.324Z,36.47
2019-05-26T04:51:54.598Z,35.43
2019-05-26T04:52:41.270Z,34.97
2019-05-26T04:53:27.648Z,36.20
2019-05-26T04:54:13.523Z,35.80
2019-05-26T04:54:59.991Z,37.30
2019-05-26T04:55:46.361Z,37.50
2019-05-26T04:56:32.791Z,37.67
2019-05-26T04:57:19.208Z,36.33
2019-05-26T04:58:05.427Z,37.00
2019-05-26T04:58:52.061Z,38.10
2019-05-26T04:59:38.485Z,36.73
2019-05-26T05:00:24.950Z,36.27
2019-05-26T05:01:11.153Z,36.77
2019-05-26T05:01:57.531Z,36.40
2019-05-26T05:02:43.451Z,38.67
2019-05-26T05:03:29.876Z,37.90
2019-05-26T05:04:15.878Z,39.57
2019-05-26T05:05:02.397Z,39.30
2019-05-26T05:05:48.876Z,38.93
2019-05-26T05:06:36.052Z,40.07
2019-05-26T05:07:21.919Z,39.03
2019-05-26T05:08:08.610Z,36.67
2019-05-26T05:08:55.123Z,38.87
2019-05-26T05:09:41.557Z,38.33
2019-05-26T05:10:41.276Z,39.40
2019-05-26T05:11:15.726Z,39.10
2019-05-26T05:12:01.697Z,40.70
2019-05-26T05:12:48.271Z,41.13
2019-05-26T05:13:34.740Z,39.33
2019-05-26T05:14:21.938Z,40.40
2019-05-26T05:15:09.109Z,39.50
2019-05-26T05:15:55.468Z,39.83
2019-05-26T05:16:41.545Z,40.20
2019-05-26T05:17:28.564Z,39.50
2019-05-26T05:18:14.924Z,39.77
2019-05-26T05:19:01.518Z,38.93
2019-05-26T05:19:47.756Z,39.90
2019-05-26T05:20:34.356Z,39.43
2019-05-26T05:21:20.905Z,38.97
2019-05-26T05:22:07.099Z,39.03
2019-05-26T05:22:53.499Z,38.27
2019-05-26T05:23:39.863Z,39.17
2019-05-26T05:24:26.300Z,38.60
2019-05-26T05:25:15.152Z,39.63
2019-05-26T05:26:01.704Z,38.37
2019-05-26T05:26:48.304Z,42.00
2019-05-26T05:27:34.381Z,40.43
2019-05-26T05:28:20.911Z,39.43
2019-05-26T05:29:06.957Z,39.50
2019-05-26T05:29:53.227Z,39.73
2019-05-26T05:30:39.476Z,39.17
2019-05-26T05:31:25.549Z,39.27
2019-05-26T05:32:11.220Z,39.47
2019-05-26T05:32:57.447Z,39.00
2019-05-26T05:33:43.929Z,39.23
2019-05-26T05:34:30.536Z,40.40
2019-05-26T05:35:16.644Z,39.70
2019-05-26T05:36:03.005Z,39.17
2019-05-26T05:36:48.903Z,39.87
2019-05-26T05:37:35.355Z,38.43
2019-05-26T05:38:21.705Z,38.10
2019-05-26T05:39:07.959Z,37.47
2019-05-26T05:39:54.138Z,38.50
2019-05-26T05:40:40.137Z,37.37
2019-05-26T05:41:26.008Z,37.67
2019-05-26T05:42:12.058Z,36.37
2019-05-26T05:42:58.175Z,36.70
2019-05-26T05:43:44.357Z,35.63
2019-05-26T05:44:31.185Z,36.53
2019-05-26T05:45:19.935Z,37.43
2019-05-26T05:46:07.446Z,36.57
2019-05-26T05:46:53.873Z,35.40
2019-05-26T05:47:40.469Z,35.10
2019-05-26T05:48:26.577Z,36.07
2019-05-26T05:49:13.190Z,36.10
2019-05-26T05:49:59.809Z,34.40
2019-05-26T05:50:46.049Z,35.23
2019-05-26T05:51:32.762Z,32.87
2019-05-26T05:52:19.080Z,33.83
2019-05-26T05:53:05.355Z,33.27
2019-05-26T05:53:52.014Z,33.37
2019-05-26T05:54:38.605Z,33.90
2019-05-26T05:55:29.669Z,33.40
2019-05-26T05:56:17.783Z,32.53
2019-05-26T05:57:06.767Z,34.57
2019-05-26T05:57:56.970Z,33.30
2019-05-26T05:58:42.743Z,31.90
2019-05-26T05:59:29.286Z,32.13
2019-05-26T06:00:16.420Z,31.33
2019-05-26T06:01:02.470Z,32.23
2019-05-26T06:01:49.323Z,32.27
2019-05-26T06:02:35.290Z,31.80
2019-05-26T06:03:21.479Z,31.03
2019-05-26T06:04:07.675Z,32.00
2019-05-26T06:04:54.029Z,31.50
2019-05-26T06:05:40.630Z,31.43
2019-05-26T06:06:27.003Z,31.40
2019-05-26T06:07:13.656Z,33.73
2019-05-26T06:08:02.899Z,31.67
2019-05-26T06:08:50.672Z,30.90
2019-05-26T06:09:36.638Z,30.27
2019-05-26T06:10:23.484Z,31.67
2019-05-26T06:11:16.566Z,30.90
2019-05-26T06:11:59.075Z,30.37
2019-05-26T06:12:53.347Z,30.57
2019-05-26T06:13:40.146Z,30.63
2019-05-26T06:14:26.430Z,30.63
2019-05-26T06:15:14.409Z,29.77
2019-05-26T06:16:01.262Z,29.47
2019-05-26T06:16:49.780Z,29.23
2019-05-26T06:17:35.878Z,29.40
2019-05-26T06:18:22.584Z,27.27
2019-05-26T06:19:09.247Z,27.53
2019-05-26T06:19:58.115Z,28.13
2019-05-26T06:20:44.379Z,28.20
2019-05-26T06:21:30.511Z,27.70
2019-05-26T06:22:16.780Z,29.07
2019-05-26T06:23:08.646Z,28.70
2019-05-26T06:23:55.174Z,27.13
2019-05-26T06:30:34.003Z,27.17
2019-05-26T06:34:12.353Z,26.33
2019-05-26T06:34:59.799Z,26.93
2019-05-26T06:36:06.071Z,27.00
2019-05-26T06:40:52.259Z,25.63
2019-05-26T06:41:38.587Z,24.83
2019-05-26T06:42:24.750Z,27.20
2019-05-26T06:43:11.588Z,26.33
2019-05-26T06:43:58.059Z,26.07
2019-05-26T06:44:52.932Z,26.00
2019-05-26T06:45:32.358Z,26.50
2019-05-26T06:46:24.235Z,25.87
2019-05-26T06:47:10.239Z,25.50
2019-05-26T06:47:56.347Z,24.70
2019-05-26T06:48:42.216Z,25.33
2019-05-26T06:49:28.028Z,24.43
2019-05-26T06:50:14.607Z,25.50
2019-05-26T06:51:00.598Z,26.03
2019-05-26T06:51:46.838Z,24.83
2019-05-26T06:52:33.957Z,24.93
2019-05-26T06:53:20.611Z,24.67
2019-05-26T06:54:06.901Z,25.67
2019-05-26T06:54:52.993Z,25.63
2019-05-26T06:55:39.427Z,24.67
2019-05-26T06:56:25.837Z,25.60
2019-05-26T06:57:12.537Z,24.37
2019-05-26T06:57:59.003Z,25.03
2019-05-26T06:58:45.348Z,24.57
2019-05-26T06:59:32.620Z,24.60
2019-05-26T07:00:21.678Z,24.47
2019-05-26T07:01:07.960Z,24.17
2019-05-26T07:01:54.270Z,23.20
2019-05-26T07:02:40.494Z,23.87
2019-05-26T07:03:27.645Z,26.13
2019-05-26T07:04:13.962Z,22.43
2019-05-26T07:05:00.217Z,23.23
2019-05-26T07:05:46.080Z,24.20
2019-05-26T07:06:33.920Z,23.13
2019-05-26T07:07:20.325Z,22.87
2019-05-26T07:08:06.573Z,22.60
2019-05-26T07:08:52.911Z,22.93
2019-05-26T07:09:39.283Z,23.03
2019-05-26T07:10:25.744Z,21.87
2019-05-26T07:11:11.706Z,22.07
2019-05-26T07:12:00.414Z,21.17
2019-05-26T07:12:45.301Z,22.43
2019-05-26T07:13:31.537Z,22.03
2019-05-26T07:14:17.655Z,22.60
2019-05-26T07:15:04.771Z,21.87
2019-05-26T07:15:50.890Z,22.27
2019-05-26T07:16:38.408Z,21.40
2019-05-26T07:17:24.414Z,21.90
2019-05-26T07:18:10.451Z,22.00
2019-05-26T07:18:56.384Z,20.33
2019-05-26T07:19:42.435Z,23.10
2019-05-26T07:20:28.454Z,22.57
2019-05-26T07:21:14.277Z,23.00
2019-05-26T07:22:00.410Z,21.87
2019-05-26T07:22:46.537Z,22.80
2019-05-26T07:23:32.925Z,21.63
2019-05-26T07:24:19.467Z,20.20
2019-05-26T07:25:05.869Z,21.77
2019-05-26T07:25:52.033Z,20.90
2019-05-26T07:26:37.831Z,20.43
2019-05-26T07:27:24.200Z,20.97
2019-05-26T07:28:10.309Z,20.90
2019-05-26T07:28:56.287Z,21.07
2019-05-26T07:29:42.507Z,21.37
2019-05-26T07:30:29.479Z,21.27
2019-05-26T07:31:15.644Z,20.20
2019-05-26T07:32:01.880Z,20.83
2019-05-26T07:32:47.788Z,20.27
2019-05-26T07:33:33.945Z,20.23
2019-05-26T07:34:20.184Z,19.07
2019-05-26T07:35:07.447Z,19.03
2019-05-26T07:35:54.025Z,19.20
2019-05-26T07:36:40.173Z,19.63
2019-05-26T07:37:26.166Z,19.37
2019-05-26T07:38:12.508Z,19.97
2019-05-26T07:38:58.581Z,18.37
2019-05-26T07:39:44.834Z,18.97
2019-05-26T07:40:31.068Z,17.17
2019-05-26T07:41:16.984Z,17.50
2019-05-26T07:42:09.934Z,18.10
2019-05-26T07:42:51.126Z,18.27
2019-05-26T07:43:38.522Z,18.10
2019-05-26T07:44:24.607Z,16.25
2019-05-26T07:45:12.560Z,16.23
2019-05-26T07:45:58.631Z,15.28
2019-05-26T07:46:44.972Z,15.10
2019-05-26T07:47:31.317Z,14.90
2019-05-26T07:48:17.649Z,15.90
2019-05-26T07:49:03.700Z,14.70
2019-05-26T07:49:50.050Z,14.98
2019-05-26T07:50:36.280Z,13.88
2019-05-26T07:51:22.528Z,14.30
2019-05-26T07:52:08.776Z,13.38
2019-05-26T07:52:54.961Z,14.65
2019-05-26T07:53:40.779Z,14.30
2019-05-26T07:54:27.171Z,14.18
2019-05-26T07:55:14.038Z,12.35
2019-05-26T07:55:59.982Z,13.25
2019-05-26T07:56:46.195Z,12.60
2019-05-26T07:57:32.632Z,11.33
2019-05-26T07:58:18.855Z,12.35
2019-05-26T07:59:05.025Z,12.80
2019-05-26T07:59:51.265Z,12.55
2019-05-26T08:00:37.504Z,12.20
2019-05-26T08:01:24.457Z,11.15
2019-05-26T08:02:10.875Z,12.45
2019-05-26T08:02:57.327Z,10.72
2019-05-26T08:03:43.266Z,10.80
2019-05-26T08:04:29.241Z,11.35
2019-05-26T08:05:15.788Z,10.58
2019-05-26T08:06:01.763Z,11.08
2019-05-26T08:06:48.015Z,11.22
2019-05-26T08:07:35.065Z,11.25
2019-05-26T08:08:21.498Z,10.68
2019-05-26T08:09:08.196Z,11.33
2019-05-26T08:09:54.245Z,10.32
2019-05-26T08:10:40.428Z,11.05
2019-05-26T08:11:26.526Z,12.25
2019-05-26T08:12:25.028Z,10.48
2019-05-26T08:12:59.896Z,10.28
2019-05-26T08:13:46.087Z,11.20
2019-05-26T08:14:32.381Z,12.10
2019-05-26T08:15:18.523Z,10.80
2019-05-26T08:16:04.495Z,10.20
2019-05-26T08:16:50.297Z,9.00
2019-05-26T08:17:36.154Z,10.88
2019-05-26T08:18:22.503Z,10.60
2019-05-26T08:19:08.455Z,9.43
2019-05-26T08:19:54.667Z,10.03
2019-05-26T08:20:42.839Z,10.20
2019-05-26T08:21:29.078Z,10.65
2019-05-26T08:22:15.241Z,9.98
2019-05-26T08:23:00.977Z,10.55
2019-05-26T08:23:47.122Z,11.43
2019-05-26T08:24:32.800Z,10.15
2019-05-26T08:25:18.944Z,10.35
2019-05-26T08:26:04.841Z,10.72
2019-05-26T08:26:51.014Z,10.80
2019-05-26T08:27:36.733Z,9.05
2019-05-26T08:28:23.027Z,9.45
2019-05-26T08:29:09.860Z,9.20
2019-05-26T08:29:55.950Z,9.53
2019-05-26T08:30:42.237Z,9.48
2019-05-26T08:31:28.661Z,9.85
2019-05-26T08:32:15.147Z,10.35
2019-05-26T08:33:01.365Z,9.75
2019-05-26T08:33:47.535Z,9.83
2019-05-26T08:34:33.387Z,10.05
2019-05-26T08:35:19.984Z,9.95
2019-05-26T08:36:06.501Z,9.18
2019-05-26T08:36:53.540Z,9.30
2019-05-26T08:37:40.944Z,7.80
2019-05-26T08:38:29.279Z,8.05
2019-05-26T08:39:15.445Z,8.78
2019-05-26T08:40:21.073Z,9.10
2019-05-26T08:41:07.330Z,9.53
2019-05-26T08:41:53.101Z,9.23
2019-05-26T08:42:44.422Z,9.28
2019-05-26T08:43:27.152Z,9.53
2019-05-26T08:44:13.508Z,8.95
2019-05-26T08:44:59.656Z,7.92
2019-05-26T08:45:45.963Z,9.20
2019-05-26T08:46:31.829Z,8.00
2019-05-26T08:47:18.240Z,7.93
2019-05-26T08:48:04.611Z,8.25
2019-05-26T08:48:50.783Z,7.43
2019-05-26T08:49:36.510Z,7.17
2019-05-26T08:50:22.922Z,7.03
2019-05-26T08:51:09.213Z,6.37
2019-05-26T08:51:56.137Z,7.57
2019-05-26T08:52:42.418Z,7.50
2019-05-26T08:53:28.614Z,7.33
2019-05-26T08:54:14.837Z,7.40
2019-05-26T08:55:01.089Z,7.90
2019-05-26T08:55:47.264Z,7.37
2019-05-26T08:56:33.490Z,7.40
2019-05-26T08:57:20.227Z,7.57
2019-05-26T08:58:10.850Z,7.43
2019-05-26T08:59:17.190Z,7.27
2019-05-26T09:00:14.905Z,7.07
2019-05-26T09:01:02.413Z,7.00
2019-05-26T09:01:50.014Z,7.10
2019-05-26T09:02:36.094Z,7.23
2019-05-26T09:03:22.229Z,7.10
2019-05-26T09:04:09.456Z,6.03
2019-05-26T09:04:55.771Z,7.17
2019-05-26T09:05:42.586Z,7.63
2019-05-26T09:06:29.718Z,6.90
2019-05-26T09:07:15.897Z,6.87
2019-05-26T09:08:02.255Z,5.87
2019-05-26T09:08:48.307Z,5.70
2019-05-26T09:09:34.366Z,6.30
2019-05-26T09:10:20.504Z,6.20
2019-05-26T09:11:06.617Z,5.90
2019-05-26T09:11:52.355Z,7.33
2019-05-26T09:12:38.124Z,6.33
2019-05-26T09:13:24.260Z,5.57
2019-05-26T09:14:10.053Z,5.27
2019-05-26T09:14:55.844Z,4.83
2019-05-26T09:15:42.267Z,5.40
2019-05-26T09:16:28.329Z,5.10
2019-05-26T09:17:14.208Z,4.63
2019-05-26T09:18:00.824Z,4.50
2019-05-26T09:18:46.668Z,5.17
2019-05-26T09:19:32.495Z,4.97
2019-05-26T09:20:18.855Z,4.60
2019-05-26T09:21:08.287Z,4.63
2019-05-26T09:21:56.266Z,4.77
2019-05-26T09:22:42.627Z,4.83
2019-05-26T09:23:29.015Z,4.87
2019-05-26T09:24:19.525Z,4.90
2019-05-26T09:25:09.623Z,4.90
2019-05-26T09:26:00.233Z,4.27
2019-05-26T09:26:46.193Z,4.80
2019-05-26T09:27:32.443Z,4.63
2019-05-26T09:28:18.672Z,4.20
2019-05-26T09:29:04.819Z,4.20
2019-05-26T09:29:53.296Z,4.27
2019-05-26T09:30:39.785Z,4.77
2019-05-26T09:31:29.867Z,4.80
2019-05-26T09:32:15.997Z,4.20
2019-05-26T09:33:03.593Z,3.80
2019-05-26T09:33:49.684Z,3.63
2019-05-26T09:34:35.921Z,3.60
2019-05-26T09:35:24.955Z,4.03
2019-05-26T09:36:13.157Z,3.80
2019-05-26T09:36:59.393Z,3.80
2019-05-26T09:37:45.267Z,4.73
2019-05-26T09:38:31.517Z,3.60
2019-05-26T09:39:17.244Z,3.73
2019-05-26T09:40:05.373Z,3.80
2019-05-26T09:40:51.672Z,3.30
2019-05-26T09:41:37.909Z,3.60
2019-05-26T09:42:24.422Z,4.10
2019-05-26T09:43:16.253Z,4.03
2019-05-26T09:43:58.408Z,3.60
2019-05-26T09:44:44.644Z,3.83
2019-05-26T09:45:30.873Z,3.43
2019-05-26T09:46:17.688Z,3.90
2019-05-26T09:47:04.287Z,3.53
2019-05-26T09:47:50.429Z,3.67
2019-05-26T09:48:36.407Z,3.40
2019-05-26T09:49:22.329Z,3.73
2019-05-26T09:50:09.104Z,3.83
2019-05-26T09:50:55.083Z,3.73
2019-05-26T09:51:41.262Z,3.67
2019-05-26T09:52:27.491Z,3.90
2019-05-26T09:53:16.429Z,4.20
2019-05-26T09:54:02.846Z,3.80
2019-05-26T09:54:49.511Z,4.03
2019-05-26T09:55:35.770Z,3.80
2019-05-26T09:56:21.922Z,4.10
2019-05-26T09:57:08.511Z,3.50
2019-05-26T09:57:54.628Z,4.30
2019-05-26T09:58:40.634Z,3.60
2019-05-26T09:59:26.577Z,4.37
2019-05-26T10:00:16.141Z,3.50
2019-05-26T10:01:02.402Z,3.90
2019-05-26T10:01:48.643Z,3.63
2019-05-26T10:02:34.623Z,3.57
2019-05-26T10:03:20.974Z,3.50
2019-05-26T10:04:07.152Z,3.40
2019-05-26T10:04:53.713Z,3.57
2019-05-26T10:05:41.007Z,3.50
2019-05-26T10:06:27.262Z,3.67
2019-05-26T10:07:16.026Z,2.97
2019-05-26T10:08:01.880Z,3.10
2019-05-26T10:08:47.819Z,3.50
2019-05-26T10:09:33.928Z,3.90
2019-05-26T10:10:20.416Z,3.20
2019-05-26T10:11:06.327Z,3.47
2019-05-26T10:11:52.670Z,3.60
2019-05-26T10:12:38.687Z,3.27
2019-05-26T10:13:31.713Z,3.67
2019-05-26T10:14:13.044Z,3.30
2019-05-26T10:14:59.451Z,3.47
2019-05-26T10:15:45.957Z,3.43
2019-05-26T10:16:32.043Z,4.00
2019-05-26T10:17:18.536Z,4.13
2019-05-26T10:18:06.043Z,4.00
2019-05-26T10:18:52.353Z,3.67
2019-05-26T10:19:38.427Z,3.10